sensor_id;sensor_type;location;lat;lon;timestamp;P1;durP1;ratioP1;P2;durP2;ratioP2
30948;SDS011;17637;51.984;21.208;2023-07-28T00:01:32;5.68;;;4.47;;
30948;SDS011;17637;51.984;21.208;2023-07-28T00:04:04;5.70;;;5.03;;
30948;SDS011;17637;51.984;21.208;2023-07-28T00:06:38;7.13;;;4.72;;
30948;SDS011;17637;51.984;21.208;2023-07-28T00:09:11;6.80;;;4.68;;
30948;SDS011;17637;51.984;21.208;2023-07-28T00:11:43;6.20;;;4.97;;
30948;SDS011;17637;51.984;21.208;2023-07-28T00:14:14;6.25;;;4.75;;
30948;SDS011;17637;51.984;21.208;2023-07-28T00:16:46;7.65;;;5.03;;
30948;SDS011;17637;51.984;21.208;2023-07-28T00:19:19;6.53;;;4.28;;
30948;SDS011;17637;51.984;21.208;2023-07-28T00:21:52;5.72;;;4.45;;
30948;SDS011;17637;51.984;21.208;2023-07-28T00:24:24;6.38;;;4.93;;
30948;SDS011;17637;51.984;21.208;2023-07-28T00:26:56;5.50;;;4.68;;
30948;SDS011;17637;51.984;21.208;2023-07-28T00:29:28;8.85;;;4.80;;
30948;SDS011;17637;51.984;21.208;2023-07-28T00:31:59;7.75;;;5.30;;
30948;SDS011;17637;51.984;21.208;2023-07-28T00:34:31;8.85;;;5.65;;
30948;SDS011;17637;51.984;21.208;2023-07-28T00:37:03;6.32;;;4.72;;
30948;SDS011;17637;51.984;21.208;2023-07-28T00:39:35;6.35;;;4.80;;
30948;SDS011;17637;51.984;21.208;2023-07-28T00:42:07;6.22;;;5.10;;
30948;SDS011;17637;51.984;21.208;2023-07-28T00:44:41;7.53;;;5.07;;
30948;SDS011;17637;51.984;21.208;2023-07-28T00:47:13;6.88;;;5.13;;
30948;SDS011;17637;51.984;21.208;2023-07-28T00:49:45;8.15;;;5.30;;
30948;SDS011;17637;51.984;21.208;2023-07-28T00:52:17;8.35;;;4.97;;
30948;SDS011;17637;51.984;21.208;2023-07-28T00:54:48;8.77;;;5.00;;
30948;SDS011;17637;51.984;21.208;2023-07-28T00:57:20;5.65;;;4.93;;
30948;SDS011;17637;51.984;21.208;2023-07-28T00:59:52;6.43;;;4.88;;
30948;SDS011;17637;51.984;21.208;2023-07-28T01:02:24;8.00;;;5.00;;
30948;SDS011;17637;51.984;21.208;2023-07-28T01:04:56;5.97;;;4.70;;
30948;SDS011;17637;51.984;21.208;2023-07-28T01:10:46;6.82;;;4.78;;
30948;SDS011;17637;51.984;21.208;2023-07-28T01:13:18;7.43;;;5.30;;
30948;SDS011;17637;51.984;21.208;2023-07-28T01:15:50;7.38;;;5.90;;
30948;SDS011;17637;51.984;21.208;2023-07-28T01:18:22;6.85;;;5.40;;
30948;SDS011;17637;51.984;21.208;2023-07-28T01:20:54;11.00;;;5.80;;
30948;SDS011;17637;51.984;21.208;2023-07-28T01:23:34;7.68;;;5.35;;
30948;SDS011;17637;51.984;21.208;2023-07-28T01:26:40;6.97;;;4.72;;
30948;SDS011;17637;51.984;21.208;2023-07-28T01:29:13;6.15;;;5.40;;
30948;SDS011;17637;51.984;21.208;2023-07-28T01:31:47;7.65;;;4.50;;
30948;SDS011;17637;51.984;21.208;2023-07-28T01:34:21;6.82;;;5.35;;
30948;SDS011;17637;51.984;21.208;2023-07-28T01:36:53;6.78;;;5.10;;
30948;SDS011;17637;51.984;21.208;2023-07-28T01:39:25;7.45;;;4.97;;
30948;SDS011;17637;51.984;21.208;2023-07-28T01:41:57;11.15;;;5.32;;
30948;SDS011;17637;51.984;21.208;2023-07-28T01:44:29;7.13;;;5.60;;
30948;SDS011;17637;51.984;21.208;2023-07-28T01:47:01;7.65;;;4.85;;
30948;SDS011;17637;51.984;21.208;2023-07-28T01:49:33;8.80;;;5.47;;
30948;SDS011;17637;51.984;21.208;2023-07-28T01:52:05;8.10;;;5.32;;
30948;SDS011;17637;51.984;21.208;2023-07-28T01:54:37;5.85;;;5.03;;
30948;SDS011;17637;51.984;21.208;2023-07-28T01:57:09;7.95;;;5.35;;
30948;SDS011;17637;51.984;21.208;2023-07-28T01:59:41;5.97;;;5.00;;
30948;SDS011;17637;51.984;21.208;2023-07-28T02:02:12;6.13;;;5.25;;
30948;SDS011;17637;51.984;21.208;2023-07-28T02:04:44;7.18;;;4.80;;
30948;SDS011;17637;51.984;21.208;2023-07-28T02:07:16;5.90;;;5.10;;
30948;SDS011;17637;51.984;21.208;2023-07-28T02:09:48;9.13;;;5.28;;
30948;SDS011;17637;51.984;21.208;2023-07-28T02:12:20;6.88;;;4.88;;
30948;SDS011;17637;51.984;21.208;2023-07-28T02:14:51;8.07;;;5.88;;
30948;SDS011;17637;51.984;21.208;2023-07-28T02:17:23;8.10;;;5.72;;
30948;SDS011;17637;51.984;21.208;2023-07-28T02:19:55;7.07;;;5.38;;
30948;SDS011;17637;51.984;21.208;2023-07-28T02:22:27;7.55;;;5.45;;
30948;SDS011;17637;51.984;21.208;2023-07-28T02:24:59;7.53;;;5.20;;
30948;SDS011;17637;51.984;21.208;2023-07-28T02:27:33;6.53;;;5.00;;
30948;SDS011;17637;51.984;21.208;2023-07-28T02:30:05;8.30;;;5.38;;
30948;SDS011;17637;51.984;21.208;2023-07-28T02:32:38;8.02;;;5.57;;
30948;SDS011;17637;51.984;21.208;2023-07-28T02:35:10;6.43;;;5.00;;
30948;SDS011;17637;51.984;21.208;2023-07-28T02:37:42;9.25;;;6.07;;
30948;SDS011;17637;51.984;21.208;2023-07-28T02:40:14;6.30;;;5.32;;
30948;SDS011;17637;51.984;21.208;2023-07-28T02:42:46;6.88;;;5.13;;
30948;SDS011;17637;51.984;21.208;2023-07-28T02:45:17;10.68;;;5.57;;
30948;SDS011;17637;51.984;21.208;2023-07-28T02:47:50;6.90;;;5.45;;
30948;SDS011;17637;51.984;21.208;2023-07-28T02:50:22;10.35;;;6.05;;
30948;SDS011;17637;51.984;21.208;2023-07-28T02:52:54;9.23;;;6.00;;
30948;SDS011;17637;51.984;21.208;2023-07-28T02:55:26;8.13;;;5.75;;
30948;SDS011;17637;51.984;21.208;2023-07-28T02:57:58;8.13;;;5.80;;
30948;SDS011;17637;51.984;21.208;2023-07-28T03:00:30;8.48;;;5.97;;
30948;SDS011;17637;51.984;21.208;2023-07-28T03:03:02;10.07;;;6.82;;
30948;SDS011;17637;51.984;21.208;2023-07-28T03:05:34;7.78;;;6.57;;
30948;SDS011;17637;51.984;21.208;2023-07-28T03:08:06;11.20;;;6.95;;
30948;SDS011;17637;51.984;21.208;2023-07-28T03:10:37;7.05;;;6.05;;
30948;SDS011;17637;51.984;21.208;2023-07-28T03:13:09;7.40;;;5.90;;
30948;SDS011;17637;51.984;21.208;2023-07-28T03:15:41;8.40;;;6.78;;
30948;SDS011;17637;51.984;21.208;2023-07-28T03:18:13;7.43;;;6.05;;
30948;SDS011;17637;51.984;21.208;2023-07-28T03:20:45;7.00;;;6.30;;
30948;SDS011;17637;51.984;21.208;2023-07-28T03:23:18;10.43;;;5.95;;
30948;SDS011;17637;51.984;21.208;2023-07-28T03:25:50;9.88;;;6.30;;
30948;SDS011;17637;51.984;21.208;2023-07-28T03:28:21;10.57;;;6.70;;
30948;SDS011;17637;51.984;21.208;2023-07-28T03:30:53;7.95;;;6.05;;
30948;SDS011;17637;51.984;21.208;2023-07-28T03:33:25;10.57;;;5.80;;
30948;SDS011;17637;51.984;21.208;2023-07-28T03:35:57;6.53;;;5.32;;
30948;SDS011;17637;51.984;21.208;2023-07-28T03:38:29;9.80;;;7.03;;
30948;SDS011;17637;51.984;21.208;2023-07-28T03:41:01;8.75;;;6.40;;
30948;SDS011;17637;51.984;21.208;2023-07-28T03:43:33;10.35;;;7.22;;
30948;SDS011;17637;51.984;21.208;2023-07-28T03:46:04;11.07;;;6.50;;
30948;SDS011;17637;51.984;21.208;2023-07-28T03:48:37;9.55;;;6.13;;
30948;SDS011;17637;51.984;21.208;2023-07-28T03:51:08;8.73;;;6.15;;
30948;SDS011;17637;51.984;21.208;2023-07-28T03:53:40;6.75;;;5.70;;
30948;SDS011;17637;51.984;21.208;2023-07-28T03:56:12;8.93;;;6.53;;
30948;SDS011;17637;51.984;21.208;2023-07-28T03:58:44;8.35;;;5.93;;
30948;SDS011;17637;51.984;21.208;2023-07-28T04:01:15;9.05;;;6.60;;
30948;SDS011;17637;51.984;21.208;2023-07-28T04:03:48;7.57;;;6.28;;
30948;SDS011;17637;51.984;21.208;2023-07-28T04:06:35;9.80;;;6.45;;
30948;SDS011;17637;51.984;21.208;2023-07-28T04:09:14;9.95;;;6.25;;
30948;SDS011;17637;51.984;21.208;2023-07-28T04:11:46;6.30;;;4.82;;
30948;SDS011;17637;51.984;21.208;2023-07-28T04:14:18;8.20;;;5.35;;
30948;SDS011;17637;51.984;21.208;2023-07-28T04:16:50;7.57;;;4.40;;
30948;SDS011;17637;51.984;21.208;2023-07-28T04:19:22;6.75;;;5.43;;
30948;SDS011;17637;51.984;21.208;2023-07-28T04:21:54;7.68;;;5.70;;
30948;SDS011;17637;51.984;21.208;2023-07-28T04:24:26;8.95;;;5.35;;
30948;SDS011;17637;51.984;21.208;2023-07-28T04:26:58;8.35;;;5.50;;
30948;SDS011;17637;51.984;21.208;2023-07-28T04:29:30;9.35;;;6.53;;
30948;SDS011;17637;51.984;21.208;2023-07-28T04:32:02;10.27;;;6.97;;
30948;SDS011;17637;51.984;21.208;2023-07-28T04:34:34;8.45;;;5.60;;
30948;SDS011;17637;51.984;21.208;2023-07-28T04:37:06;7.13;;;5.80;;
30948;SDS011;17637;51.984;21.208;2023-07-28T04:39:37;8.65;;;4.63;;
30948;SDS011;17637;51.984;21.208;2023-07-28T04:42:09;7.47;;;5.25;;
30948;SDS011;17637;51.984;21.208;2023-07-28T04:44:41;8.52;;;5.10;;
30948;SDS011;17637;51.984;21.208;2023-07-28T04:47:13;9.18;;;5.28;;
30948;SDS011;17637;51.984;21.208;2023-07-28T04:49:45;7.35;;;5.15;;
30948;SDS011;17637;51.984;21.208;2023-07-28T04:52:17;7.65;;;4.55;;
30948;SDS011;17637;51.984;21.208;2023-07-28T04:54:48;7.32;;;4.65;;
30948;SDS011;17637;51.984;21.208;2023-07-28T04:57:20;8.43;;;4.65;;
30948;SDS011;17637;51.984;21.208;2023-07-28T04:59:52;8.98;;;4.70;;
30948;SDS011;17637;51.984;21.208;2023-07-28T05:02:24;5.68;;;4.82;;
30948;SDS011;17637;51.984;21.208;2023-07-28T05:04:56;6.60;;;4.57;;
30948;SDS011;17637;51.984;21.208;2023-07-28T05:07:27;6.55;;;4.60;;
30948;SDS011;17637;51.984;21.208;2023-07-28T05:10:00;5.63;;;4.20;;
30948;SDS011;17637;51.984;21.208;2023-07-28T05:12:32;5.70;;;4.80;;
30948;SDS011;17637;51.984;21.208;2023-07-28T05:15:04;5.07;;;4.05;;
30948;SDS011;17637;51.984;21.208;2023-07-28T05:17:37;6.13;;;3.90;;
30948;SDS011;17637;51.984;21.208;2023-07-28T05:20:09;5.43;;;3.97;;
30948;SDS011;17637;51.984;21.208;2023-07-28T05:22:41;6.43;;;3.67;;
30948;SDS011;17637;51.984;21.208;2023-07-28T05:25:13;6.20;;;3.88;;
30948;SDS011;17637;51.984;21.208;2023-07-28T05:27:45;4.60;;;3.60;;
30948;SDS011;17637;51.984;21.208;2023-07-28T05:30:17;5.50;;;3.47;;
30948;SDS011;17637;51.984;21.208;2023-07-28T05:32:48;5.68;;;3.25;;
30948;SDS011;17637;51.984;21.208;2023-07-28T05:35:20;5.32;;;3.28;;
30948;SDS011;17637;51.984;21.208;2023-07-28T05:37:52;4.63;;;3.40;;
30948;SDS011;17637;51.984;21.208;2023-07-28T05:40:26;5.20;;;3.42;;
30948;SDS011;17637;51.984;21.208;2023-07-28T05:42:57;8.85;;;3.67;;
30948;SDS011;17637;51.984;21.208;2023-07-28T05:45:29;4.65;;;3.17;;
30948;SDS011;17637;51.984;21.208;2023-07-28T05:48:01;4.47;;;3.13;;
30948;SDS011;17637;51.984;21.208;2023-07-28T05:50:37;6.32;;;3.45;;
30948;SDS011;17637;51.984;21.208;2023-07-28T05:53:09;5.35;;;3.50;;
30948;SDS011;17637;51.984;21.208;2023-07-28T05:55:41;4.32;;;3.45;;
30948;SDS011;17637;51.984;21.208;2023-07-28T05:58:13;5.13;;;3.40;;
30948;SDS011;17637;51.984;21.208;2023-07-28T06:00:45;6.00;;;3.50;;
30948;SDS011;17637;51.984;21.208;2023-07-28T06:03:17;7.82;;;3.45;;
30948;SDS011;17637;51.984;21.208;2023-07-28T06:05:49;6.03;;;3.28;;
30948;SDS011;17637;51.984;21.208;2023-07-28T06:08:22;5.32;;;3.30;;
30948;SDS011;17637;51.984;21.208;2023-07-28T06:10:54;4.05;;;2.92;;
30948;SDS011;17637;51.984;21.208;2023-07-28T06:13:26;5.82;;;3.53;;
30948;SDS011;17637;51.984;21.208;2023-07-28T06:15:58;4.63;;;3.40;;
30948;SDS011;17637;51.984;21.208;2023-07-28T06:18:30;3.58;;;3.28;;
30948;SDS011;17637;51.984;21.208;2023-07-28T06:21:01;5.57;;;4.18;;
30948;SDS011;17637;51.984;21.208;2023-07-28T06:23:33;6.53;;;4.03;;
30948;SDS011;17637;51.984;21.208;2023-07-28T06:26:05;9.10;;;4.53;;
30948;SDS011;17637;51.984;21.208;2023-07-28T06:28:37;6.40;;;3.97;;
30948;SDS011;17637;51.984;21.208;2023-07-28T06:31:10;5.40;;;4.25;;
30948;SDS011;17637;51.984;21.208;2023-07-28T06:33:42;5.00;;;4.45;;
30948;SDS011;17637;51.984;21.208;2023-07-28T06:36:13;6.93;;;4.15;;
30948;SDS011;17637;51.984;21.208;2023-07-28T06:38:45;8.70;;;4.75;;
30948;SDS011;17637;51.984;21.208;2023-07-28T06:41:19;6.35;;;4.35;;
30948;SDS011;17637;51.984;21.208;2023-07-28T06:43:51;7.20;;;4.70;;
30948;SDS011;17637;51.984;21.208;2023-07-28T06:46:23;6.07;;;4.20;;
30948;SDS011;17637;51.984;21.208;2023-07-28T06:48:55;6.60;;;4.50;;
30948;SDS011;17637;51.984;21.208;2023-07-28T06:51:27;6.05;;;4.82;;
30948;SDS011;17637;51.984;21.208;2023-07-28T06:53:59;5.93;;;4.70;;
30948;SDS011;17637;51.984;21.208;2023-07-28T06:56:31;5.25;;;4.72;;
30948;SDS011;17637;51.984;21.208;2023-07-28T06:59:03;6.72;;;4.50;;
30948;SDS011;17637;51.984;21.208;2023-07-28T07:01:47;6.97;;;4.63;;
30948;SDS011;17637;51.984;21.208;2023-07-28T07:04:19;6.43;;;4.47;;
30948;SDS011;17637;51.984;21.208;2023-07-28T07:06:51;6.00;;;4.15;;
30948;SDS011;17637;51.984;21.208;2023-07-28T07:09:23;6.72;;;4.10;;
30948;SDS011;17637;51.984;21.208;2023-07-28T07:11:56;7.53;;;4.38;;
30948;SDS011;17637;51.984;21.208;2023-07-28T07:14:27;9.90;;;4.28;;
30948;SDS011;17637;51.984;21.208;2023-07-28T07:17:00;9.40;;;4.55;;
30948;SDS011;17637;51.984;21.208;2023-07-28T07:19:31;6.45;;;4.57;;
30948;SDS011;17637;51.984;21.208;2023-07-28T07:22:03;9.25;;;4.93;;
30948;SDS011;17637;51.984;21.208;2023-07-28T07:24:35;4.25;;;3.78;;
30948;SDS011;17637;51.984;21.208;2023-07-28T07:27:07;7.28;;;4.72;;
30948;SDS011;17637;51.984;21.208;2023-07-28T07:29:42;7.68;;;4.07;;
30948;SDS011;17637;51.984;21.208;2023-07-28T07:32:14;6.00;;;4.65;;
30948;SDS011;17637;51.984;21.208;2023-07-28T07:34:47;7.28;;;5.50;;
30948;SDS011;17637;51.984;21.208;2023-07-28T07:37:19;7.40;;;5.35;;
30948;SDS011;17637;51.984;21.208;2023-07-28T07:39:51;7.75;;;5.20;;
30948;SDS011;17637;51.984;21.208;2023-07-28T07:42:23;5.28;;;4.53;;
30948;SDS011;17637;51.984;21.208;2023-07-28T07:44:55;5.30;;;4.80;;
30948;SDS011;17637;51.984;21.208;2023-07-28T07:47:26;6.65;;;5.38;;
30948;SDS011;17637;51.984;21.208;2023-07-28T07:49:58;6.65;;;4.97;;
30948;SDS011;17637;51.984;21.208;2023-07-28T07:52:32;7.53;;;5.20;;
30948;SDS011;17637;51.984;21.208;2023-07-28T07:55:03;8.13;;;5.13;;
30948;SDS011;17637;51.984;21.208;2023-07-28T07:57:36;7.97;;;5.40;;
30948;SDS011;17637;51.984;21.208;2023-07-28T08:00:08;7.38;;;5.15;;
30948;SDS011;17637;51.984;21.208;2023-07-28T08:02:40;7.55;;;6.22;;
30948;SDS011;17637;51.984;21.208;2023-07-28T08:05:16;6.35;;;5.60;;
30948;SDS011;17637;51.984;21.208;2023-07-28T08:07:48;8.70;;;5.80;;
30948;SDS011;17637;51.984;21.208;2023-07-28T08:10:22;6.72;;;5.53;;
30948;SDS011;17637;51.984;21.208;2023-07-28T08:12:55;8.50;;;6.22;;
30948;SDS011;17637;51.984;21.208;2023-07-28T08:15:27;8.40;;;7.60;;
30948;SDS011;17637;51.984;21.208;2023-07-28T08:17:59;7.78;;;6.97;;
30948;SDS011;17637;51.984;21.208;2023-07-28T08:20:31;5.70;;;5.10;;
30948;SDS011;17637;51.984;21.208;2023-07-28T08:23:03;5.72;;;4.85;;
30948;SDS011;17637;51.984;21.208;2023-07-28T08:25:35;7.18;;;4.85;;
30948;SDS011;17637;51.984;21.208;2023-07-28T08:28:07;5.25;;;4.57;;
30948;SDS011;17637;51.984;21.208;2023-07-28T08:30:39;7.63;;;5.00;;
30948;SDS011;17637;51.984;21.208;2023-07-28T08:33:11;8.38;;;4.97;;
30948;SDS011;17637;51.984;21.208;2023-07-28T08:35:43;6.25;;;4.90;;
30948;SDS011;17637;51.984;21.208;2023-07-28T08:38:15;4.85;;;4.30;;
30948;SDS011;17637;51.984;21.208;2023-07-28T08:40:47;6.90;;;4.35;;
30948;SDS011;17637;51.984;21.208;2023-07-28T08:43:19;6.35;;;4.75;;
30948;SDS011;17637;51.984;21.208;2023-07-28T08:45:51;6.00;;;4.30;;
30948;SDS011;17637;51.984;21.208;2023-07-28T08:48:25;6.47;;;5.13;;
30948;SDS011;17637;51.984;21.208;2023-07-28T08:50:57;5.05;;;4.45;;
30948;SDS011;17637;51.984;21.208;2023-07-28T08:53:28;9.35;;;5.90;;
30948;SDS011;17637;51.984;21.208;2023-07-28T08:56:00;8.63;;;5.55;;
30948;SDS011;17637;51.984;21.208;2023-07-28T08:58:36;7.32;;;5.53;;
30948;SDS011;17637;51.984;21.208;2023-07-28T09:01:08;7.10;;;5.13;;
30948;SDS011;17637;51.984;21.208;2023-07-28T09:03:40;5.70;;;5.10;;
30948;SDS011;17637;51.984;21.208;2023-07-28T09:06:13;6.18;;;4.75;;
30948;SDS011;17637;51.984;21.208;2023-07-28T09:08:46;6.55;;;5.03;;
30948;SDS011;17637;51.984;21.208;2023-07-28T09:11:18;5.93;;;4.55;;
30948;SDS011;17637;51.984;21.208;2023-07-28T09:13:50;7.53;;;5.28;;
30948;SDS011;17637;51.984;21.208;2023-07-28T09:16:23;4.95;;;4.47;;
30948;SDS011;17637;51.984;21.208;2023-07-28T09:19:05;5.40;;;4.68;;
30948;SDS011;17637;51.984;21.208;2023-07-28T09:21:39;4.95;;;4.47;;
30948;SDS011;17637;51.984;21.208;2023-07-28T09:24:13;7.57;;;5.03;;
30948;SDS011;17637;51.984;21.208;2023-07-28T09:26:46;5.30;;;4.40;;
30948;SDS011;17637;51.984;21.208;2023-07-28T09:29:19;5.25;;;4.75;;
30948;SDS011;17637;51.984;21.208;2023-07-28T09:31:52;6.30;;;5.15;;
30948;SDS011;17637;51.984;21.208;2023-07-28T09:34:24;7.97;;;5.60;;
30948;SDS011;17637;51.984;21.208;2023-07-28T09:36:58;5.38;;;4.88;;
30948;SDS011;17637;51.984;21.208;2023-07-28T09:39:31;7.00;;;5.30;;
30948;SDS011;17637;51.984;21.208;2023-07-28T09:42:05;8.90;;;4.70;;
30948;SDS011;17637;51.984;21.208;2023-07-28T09:44:40;8.25;;;4.53;;
30948;SDS011;17637;51.984;21.208;2023-07-28T09:47:12;5.95;;;4.25;;
30948;SDS011;17637;51.984;21.208;2023-07-28T09:49:45;6.00;;;4.50;;
30948;SDS011;17637;51.984;21.208;2023-07-28T09:52:20;5.15;;;4.38;;
30948;SDS011;17637;51.984;21.208;2023-07-28T09:54:55;4.57;;;4.00;;
30948;SDS011;17637;51.984;21.208;2023-07-28T09:57:31;5.60;;;5.00;;
30948;SDS011;17637;51.984;21.208;2023-07-28T10:00:08;5.22;;;4.68;;
30948;SDS011;17637;51.984;21.208;2023-07-28T10:02:42;5.03;;;4.32;;
30948;SDS011;17637;51.984;21.208;2023-07-28T10:05:14;9.63;;;4.80;;
30948;SDS011;17637;51.984;21.208;2023-07-28T10:07:48;6.72;;;4.18;;
30948;SDS011;17637;51.984;21.208;2023-07-28T10:10:20;5.43;;;4.43;;
30948;SDS011;17637;51.984;21.208;2023-07-28T10:12:53;5.78;;;4.35;;
30948;SDS011;17637;51.984;21.208;2023-07-28T10:15:32;5.15;;;4.13;;
30948;SDS011;17637;51.984;21.208;2023-07-28T10:18:04;6.13;;;4.57;;
30948;SDS011;17637;51.984;21.208;2023-07-28T10:20:39;5.60;;;4.47;;
30948;SDS011;17637;51.984;21.208;2023-07-28T10:23:14;6.95;;;4.55;;
30948;SDS011;17637;51.984;21.208;2023-07-28T10:25:55;5.68;;;3.80;;
30948;SDS011;17637;51.984;21.208;2023-07-28T10:28:38;6.82;;;4.68;;
30948;SDS011;17637;51.984;21.208;2023-07-28T10:31:12;6.18;;;4.38;;
30948;SDS011;17637;51.984;21.208;2023-07-28T10:33:45;6.75;;;4.07;;
30948;SDS011;17637;51.984;21.208;2023-07-28T10:36:26;5.53;;;4.47;;
30948;SDS011;17637;51.984;21.208;2023-07-28T10:39:13;5.00;;;4.32;;
30948;SDS011;17637;51.984;21.208;2023-07-28T10:44:37;4.93;;;4.40;;
30948;SDS011;17637;51.984;21.208;2023-07-28T10:47:10;5.45;;;4.30;;
30948;SDS011;17637;51.984;21.208;2023-07-28T10:49:43;5.63;;;4.72;;
30948;SDS011;17637;51.984;21.208;2023-07-28T10:52:18;4.30;;;3.75;;
30948;SDS011;17637;51.984;21.208;2023-07-28T10:54:50;5.10;;;3.97;;
30948;SDS011;17637;51.984;21.208;2023-07-28T10:57:22;6.55;;;4.25;;
30948;SDS011;17637;51.984;21.208;2023-07-28T10:59:59;5.40;;;4.28;;
30948;SDS011;17637;51.984;21.208;2023-07-28T11:02:38;6.15;;;4.50;;
30948;SDS011;17637;51.984;21.208;2023-07-28T11:05:24;4.30;;;3.78;;
30948;SDS011;17637;51.984;21.208;2023-07-28T11:07:59;4.40;;;3.78;;
30948;SDS011;17637;51.984;21.208;2023-07-28T11:10:32;6.00;;;3.75;;
30948;SDS011;17637;51.984;21.208;2023-07-28T11:13:05;5.47;;;3.80;;
30948;SDS011;17637;51.984;21.208;2023-07-28T11:15:57;6.07;;;4.45;;
30948;SDS011;17637;51.984;21.208;2023-07-28T11:18:29;4.18;;;3.78;;
30948;SDS011;17637;51.984;21.208;2023-07-28T11:21:01;7.47;;;5.00;;
30948;SDS011;17637;51.984;21.208;2023-07-28T11:23:34;4.90;;;4.25;;
30948;SDS011;17637;51.984;21.208;2023-07-28T11:26:06;5.78;;;3.67;;
30948;SDS011;17637;51.984;21.208;2023-07-28T11:28:43;4.88;;;3.70;;
30948;SDS011;17637;51.984;21.208;2023-07-28T11:31:15;7.13;;;3.83;;
30948;SDS011;17637;51.984;21.208;2023-07-28T11:33:47;5.93;;;3.65;;
30948;SDS011;17637;51.984;21.208;2023-07-28T11:36:23;6.93;;;4.22;;
30948;SDS011;17637;51.984;21.208;2023-07-28T11:38:59;5.97;;;4.00;;
30948;SDS011;17637;51.984;21.208;2023-07-28T11:41:32;5.68;;;4.20;;
30948;SDS011;17637;51.984;21.208;2023-07-28T11:44:05;8.65;;;4.50;;
30948;SDS011;17637;51.984;21.208;2023-07-28T11:46:41;6.35;;;4.25;;
30948;SDS011;17637;51.984;21.208;2023-07-28T11:49:17;7.05;;;3.50;;
30948;SDS011;17637;51.984;21.208;2023-07-28T11:51:54;5.38;;;4.00;;
30948;SDS011;17637;51.984;21.208;2023-07-28T11:54:26;5.50;;;3.25;;
30948;SDS011;17637;51.984;21.208;2023-07-28T11:56:59;6.00;;;3.67;;
30948;SDS011;17637;51.984;21.208;2023-07-28T11:59:31;4.80;;;3.80;;
30948;SDS011;17637;51.984;21.208;2023-07-28T12:02:03;6.75;;;4.35;;
30948;SDS011;17637;51.984;21.208;2023-07-28T12:04:39;6.50;;;3.28;;
30948;SDS011;17637;51.984;21.208;2023-07-28T12:07:17;6.80;;;3.45;;
30948;SDS011;17637;51.984;21.208;2023-07-28T12:09:50;4.32;;;3.35;;
30948;SDS011;17637;51.984;21.208;2023-07-28T12:12:29;5.63;;;3.22;;
30948;SDS011;17637;51.984;21.208;2023-07-28T12:15:28;6.22;;;3.60;;
30948;SDS011;17637;51.984;21.208;2023-07-28T12:20:46;5.18;;;2.70;;
30948;SDS011;17637;51.984;21.208;2023-07-28T12:23:20;4.68;;;3.13;;
30948;SDS011;17637;51.984;21.208;2023-07-28T12:25:55;5.90;;;2.90;;
30948;SDS011;17637;51.984;21.208;2023-07-28T12:28:30;2.85;;;2.55;;
30948;SDS011;17637;51.984;21.208;2023-07-28T12:31:13;6.60;;;2.47;;
30948;SDS011;17637;51.984;21.208;2023-07-28T12:33:45;5.60;;;2.35;;
30948;SDS011;17637;51.984;21.208;2023-07-28T12:36:21;2.60;;;2.17;;
30948;SDS011;17637;51.984;21.208;2023-07-28T12:39:13;2.45;;;2.25;;
30948;SDS011;17637;51.984;21.208;2023-07-28T12:41:48;3.63;;;2.30;;
30948;SDS011;17637;51.984;21.208;2023-07-28T12:44:41;4.40;;;2.80;;
30948;SDS011;17637;51.984;21.208;2023-07-28T12:47:16;4.28;;;2.70;;
30948;SDS011;17637;51.984;21.208;2023-07-28T12:49:50;2.10;;;1.90;;
30948;SDS011;17637;51.984;21.208;2023-07-28T12:52:22;3.28;;;2.10;;
30948;SDS011;17637;51.984;21.208;2023-07-28T12:55:14;2.28;;;1.77;;
30948;SDS011;17637;51.984;21.208;2023-07-28T12:57:48;2.42;;;1.90;;
30948;SDS011;17637;51.984;21.208;2023-07-28T13:00:20;5.80;;;2.22;;
30948;SDS011;17637;51.984;21.208;2023-07-28T13:02:55;3.00;;;1.85;;
30948;SDS011;17637;51.984;21.208;2023-07-28T13:05:27;2.15;;;1.80;;
30948;SDS011;17637;51.984;21.208;2023-07-28T13:07:59;2.40;;;1.63;;
30948;SDS011;17637;51.984;21.208;2023-07-28T13:10:34;3.25;;;1.80;;
30948;SDS011;17637;51.984;21.208;2023-07-28T13:13:09;2.72;;;1.83;;
30948;SDS011;17637;51.984;21.208;2023-07-28T13:15:45;3.10;;;2.05;;
30948;SDS011;17637;51.984;21.208;2023-07-28T13:18:17;4.00;;;2.10;;
30948;SDS011;17637;51.984;21.208;2023-07-28T13:20:49;1.73;;;1.63;;
30948;SDS011;17637;51.984;21.208;2023-07-28T13:23:21;3.45;;;2.00;;
30948;SDS011;17637;51.984;21.208;2023-07-28T13:25:53;2.40;;;1.52;;
30948;SDS011;17637;51.984;21.208;2023-07-28T13:28:25;2.35;;;1.67;;
30948;SDS011;17637;51.984;21.208;2023-07-28T13:30:57;2.83;;;1.95;;
30948;SDS011;17637;51.984;21.208;2023-07-28T13:33:29;1.98;;;1.73;;
30948;SDS011;17637;51.984;21.208;2023-07-28T13:36:01;1.90;;;1.70;;
30948;SDS011;17637;51.984;21.208;2023-07-28T13:38:35;2.10;;;1.77;;
30948;SDS011;17637;51.984;21.208;2023-07-28T13:41:07;2.17;;;1.58;;
30948;SDS011;17637;51.984;21.208;2023-07-28T13:43:39;4.10;;;2.30;;
30948;SDS011;17637;51.984;21.208;2023-07-28T13:46:12;2.50;;;1.67;;
30948;SDS011;17637;51.984;21.208;2023-07-28T13:48:45;2.28;;;1.70;;
30948;SDS011;17637;51.984;21.208;2023-07-28T13:51:20;2.60;;;1.42;;
30948;SDS011;17637;51.984;21.208;2023-07-28T13:54:12;3.65;;;1.30;;
30948;SDS011;17637;51.984;21.208;2023-07-28T13:56:46;1.73;;;1.50;;
30948;SDS011;17637;51.984;21.208;2023-07-28T13:59:21;2.85;;;1.33;;
30948;SDS011;17637;51.984;21.208;2023-07-28T14:01:53;2.00;;;1.45;;
30948;SDS011;17637;51.984;21.208;2023-07-28T14:04:26;3.65;;;1.63;;
30948;SDS011;17637;51.984;21.208;2023-07-28T14:07:02;2.50;;;1.20;;
30948;SDS011;17637;51.984;21.208;2023-07-28T14:09:34;1.40;;;1.27;;
30948;SDS011;17637;51.984;21.208;2023-07-28T14:12:06;1.52;;;1.10;;
30948;SDS011;17637;51.984;21.208;2023-07-28T14:14:38;1.83;;;1.35;;
30948;SDS011;17637;51.984;21.208;2023-07-28T14:17:10;1.60;;;1.20;;
30948;SDS011;17637;51.984;21.208;2023-07-28T14:19:42;1.70;;;1.38;;
30948;SDS011;17637;51.984;21.208;2023-07-28T14:22:14;3.45;;;1.23;;
30948;SDS011;17637;51.984;21.208;2023-07-28T14:24:46;1.83;;;1.20;;
30948;SDS011;17637;51.984;21.208;2023-07-28T14:27:17;2.55;;;1.17;;
30948;SDS011;17637;51.984;21.208;2023-07-28T14:29:49;1.70;;;1.13;;
30948;SDS011;17637;51.984;21.208;2023-07-28T14:32:21;3.45;;;2.05;;
30948;SDS011;17637;51.984;21.208;2023-07-28T14:34:53;1.60;;;1.30;;
30948;SDS011;17637;51.984;21.208;2023-07-28T14:37:26;1.60;;;1.30;;
30948;SDS011;17637;51.984;21.208;2023-07-28T14:39:58;2.97;;;1.40;;
30948;SDS011;17637;51.984;21.208;2023-07-28T14:42:30;2.75;;;1.30;;
30948;SDS011;17637;51.984;21.208;2023-07-28T14:45:01;2.15;;;1.70;;
30948;SDS011;17637;51.984;21.208;2023-07-28T14:47:33;2.65;;;1.48;;
30948;SDS011;17637;51.984;21.208;2023-07-28T14:50:05;1.85;;;1.10;;
30948;SDS011;17637;51.984;21.208;2023-07-28T14:52:38;1.98;;;1.10;;
30948;SDS011;17637;51.984;21.208;2023-07-28T14:55:10;1.20;;;1.10;;
30948;SDS011;17637;51.984;21.208;2023-07-28T14:57:45;2.42;;;1.90;;
30948;SDS011;17637;51.984;21.208;2023-07-28T15:00:17;2.28;;;1.65;;
30948;SDS011;17637;51.984;21.208;2023-07-28T15:02:49;2.35;;;1.55;;
30948;SDS011;17637;51.984;21.208;2023-07-28T15:05:21;1.55;;;1.25;;
30948;SDS011;17637;51.984;21.208;2023-07-28T15:07:53;2.15;;;1.58;;
30948;SDS011;17637;51.984;21.208;2023-07-28T15:10:25;2.80;;;1.27;;
30948;SDS011;17637;51.984;21.208;2023-07-28T15:12:57;6.28;;;1.52;;
30948;SDS011;17637;51.984;21.208;2023-07-28T15:15:28;1.98;;;1.20;;
30948;SDS011;17637;51.984;21.208;2023-07-28T15:18:00;1.10;;;1.00;;